sensor_id;sensor_type;location;lat;lon;timestamp;P1;durP1;ratioP1;P2;durP2;ratioP2
7045;SDS011;3564;53.326;10.356;2022-12-18T00:00:56;13.13;;;8.40;;
7045;SDS011;3564;53.326;10.356;2022-12-18T00:03:22;16.43;;;8.57;;
7045;SDS011;3564;53.326;10.356;2022-12-18T00:05:48;12.40;;;8.50;;
7045;SDS011;3564;53.326;10.356;2022-12-18T00:08:14;15.83;;;9.10;;
7045;SDS011;3564;53.326;10.356;2022-12-18T00:10:40;15.47;;;8.83;;
7045;SDS011;3564;53.326;10.356;2022-12-18T00:13:06;13.20;;;8.43;;
7045;SDS011;3564;53.326;10.356;2022-12-18T00:15:33;12.90;;;8.37;;
7045;SDS011;3564;53.326;10.356;2022-12-18T00:17:59;16.47;;;10.53;;
7045;SDS011;3564;53.326;10.356;2022-12-18T00:20:25;13.53;;;9.27;;
7045;SDS011;3564;53.326;10.356;2022-12-18T00:22:53;16.83;;;9.83;;
7045;SDS011;3564;53.326;10.356;2022-12-18T00:25:19;13.93;;;8.57;;
7045;SDS011;3564;53.326;10.356;2022-12-18T00:27:45;13.50;;;9.23;;
7045;SDS011;3564;53.326;10.356;2022-12-18T00:30:11;13.97;;;8.20;;
7045;SDS011;3564;53.326;10.356;2022-12-18T00:32:37;17.57;;;10.60;;
7045;SDS011;3564;53.326;10.356;2022-12-18T00:35:03;13.83;;;9.30;;
7045;SDS011;3564;53.326;10.356;2022-12-18T00:37:29;15.70;;;8.97;;
7045;SDS011;3564;53.326;10.356;2022-12-18T00:39:54;13.43;;;8.87;;
7045;SDS011;3564;53.326;10.356;2022-12-18T00:42:20;12.70;;;8.27;;
7045;SDS011;3564;53.326;10.356;2022-12-18T00:45:04;12.20;;;7.97;;
7045;SDS011;3564;53.326;10.356;2022-12-18T00:47:30;13.43;;;8.03;;
7045;SDS011;3564;53.326;10.356;2022-12-18T00:49:57;14.63;;;8.23;;
7045;SDS011;3564;53.326;10.356;2022-12-18T00:52:22;13.20;;;8.60;;
7045;SDS011;3564;53.326;10.356;2022-12-18T00:54:48;12.17;;;8.27;;
7045;SDS011;3564;53.326;10.356;2022-12-18T00:57:13;12.13;;;8.17;;
7045;SDS011;3564;53.326;10.356;2022-12-18T00:59:40;12.37;;;8.27;;
7045;SDS011;3564;53.326;10.356;2022-12-18T01:02:06;13.00;;;8.50;;
7045;SDS011;3564;53.326;10.356;2022-12-18T01:04:32;12.40;;;8.30;;
7045;SDS011;3564;53.326;10.356;2022-12-18T01:06:59;13.23;;;8.37;;
7045;SDS011;3564;53.326;10.356;2022-12-18T01:09:24;12.50;;;8.27;;
7045;SDS011;3564;53.326;10.356;2022-12-18T01:11:51;11.50;;;8.60;;
7045;SDS011;3564;53.326;10.356;2022-12-18T01:14:16;13.37;;;9.00;;
7045;SDS011;3564;53.326;10.356;2022-12-18T01:16:42;14.90;;;8.50;;
7045;SDS011;3564;53.326;10.356;2022-12-18T01:19:07;14.40;;;8.37;;
7045;SDS011;3564;53.326;10.356;2022-12-18T01:21:33;16.40;;;9.67;;
7045;SDS011;3564;53.326;10.356;2022-12-18T01:23:58;12.10;;;8.23;;
7045;SDS011;3564;53.326;10.356;2022-12-18T01:26:25;13.03;;;8.60;;
7045;SDS011;3564;53.326;10.356;2022-12-18T01:28:53;14.40;;;9.13;;
7045;SDS011;3564;53.326;10.356;2022-12-18T01:31:24;12.87;;;8.73;;
7045;SDS011;3564;53.326;10.356;2022-12-18T01:33:51;13.27;;;8.93;;
7045;SDS011;3564;53.326;10.356;2022-12-18T01:36:22;14.53;;;8.00;;
7045;SDS011;3564;53.326;10.356;2022-12-18T01:38:48;13.67;;;8.97;;
7045;SDS011;3564;53.326;10.356;2022-12-18T01:41:15;14.07;;;8.50;;
7045;SDS011;3564;53.326;10.356;2022-12-18T01:43:55;13.53;;;9.40;;
7045;SDS011;3564;53.326;10.356;2022-12-18T01:46:22;13.47;;;9.53;;
7045;SDS011;3564;53.326;10.356;2022-12-18T01:48:51;14.00;;;8.60;;
7045;SDS011;3564;53.326;10.356;2022-12-18T01:51:20;13.47;;;8.80;;
7045;SDS011;3564;53.326;10.356;2022-12-18T01:53:46;17.47;;;9.63;;
7045;SDS011;3564;53.326;10.356;2022-12-18T01:56:13;14.73;;;8.90;;
7045;SDS011;3564;53.326;10.356;2022-12-18T02:01:25;14.87;;;8.67;;
7045;SDS011;3564;53.326;10.356;2022-12-18T02:03:51;13.93;;;9.43;;
7045;SDS011;3564;53.326;10.356;2022-12-18T02:06:19;13.03;;;8.57;;
7045;SDS011;3564;53.326;10.356;2022-12-18T02:09:20;15.33;;;9.73;;
7045;SDS011;3564;53.326;10.356;2022-12-18T02:17:21;14.97;;;9.47;;
7045;SDS011;3564;53.326;10.356;2022-12-18T02:22:29;15.90;;;10.23;;
7045;SDS011;3564;53.326;10.356;2022-12-18T02:27:44;14.17;;;8.97;;
7045;SDS011;3564;53.326;10.356;2022-12-18T02:30:12;13.93;;;8.60;;
7045;SDS011;3564;53.326;10.356;2022-12-18T02:32:39;16.53;;;9.80;;
7045;SDS011;3564;53.326;10.356;2022-12-18T02:35:10;15.70;;;10.07;;
7045;SDS011;3564;53.326;10.356;2022-12-18T02:37:39;15.50;;;10.17;;
7045;SDS011;3564;53.326;10.356;2022-12-18T02:40:08;15.43;;;9.53;;
7045;SDS011;3564;53.326;10.356;2022-12-18T02:42:36;13.07;;;9.20;;
7045;SDS011;3564;53.326;10.356;2022-12-18T02:45:01;15.53;;;9.60;;
7045;SDS011;3564;53.326;10.356;2022-12-18T02:47:29;14.70;;;8.67;;
7045;SDS011;3564;53.326;10.356;2022-12-18T02:50:05;13.50;;;8.63;;
7045;SDS011;3564;53.326;10.356;2022-12-18T02:56:10;15.60;;;9.17;;
7045;SDS011;3564;53.326;10.356;2022-12-18T03:01:19;14.27;;;8.83;;
7045;SDS011;3564;53.326;10.356;2022-12-18T03:03:57;12.53;;;8.70;;
7045;SDS011;3564;53.326;10.356;2022-12-18T03:06:45;15.30;;;9.50;;
7045;SDS011;3564;53.326;10.356;2022-12-18T03:09:35;14.63;;;9.60;;
7045;SDS011;3564;53.326;10.356;2022-12-18T03:12:15;13.70;;;9.10;;
7045;SDS011;3564;53.326;10.356;2022-12-18T03:14:59;12.37;;;7.83;;
7045;SDS011;3564;53.326;10.356;2022-12-18T03:17:39;14.00;;;8.17;;
7045;SDS011;3564;53.326;10.356;2022-12-18T03:20:10;11.33;;;7.90;;
7045;SDS011;3564;53.326;10.356;2022-12-18T03:22:39;12.13;;;8.20;;
7045;SDS011;3564;53.326;10.356;2022-12-18T03:25:09;16.73;;;9.00;;
7045;SDS011;3564;53.326;10.356;2022-12-18T03:27:40;14.87;;;9.17;;
7045;SDS011;3564;53.326;10.356;2022-12-18T03:30:10;16.53;;;9.67;;
7045;SDS011;3564;53.326;10.356;2022-12-18T03:32:50;14.33;;;9.17;;
7045;SDS011;3564;53.326;10.356;2022-12-18T03:35:23;13.17;;;9.07;;
7045;SDS011;3564;53.326;10.356;2022-12-18T03:37:53;12.77;;;8.77;;
7045;SDS011;3564;53.326;10.356;2022-12-18T03:40:20;14.07;;;9.30;;
7045;SDS011;3564;53.326;10.356;2022-12-18T03:42:52;13.00;;;9.27;;
7045;SDS011;3564;53.326;10.356;2022-12-18T03:56:00;16.70;;;9.70;;
7045;SDS011;3564;53.326;10.356;2022-12-18T03:58:29;19.27;;;10.57;;
7045;SDS011;3564;53.326;10.356;2022-12-18T04:00:59;14.13;;;10.00;;
7045;SDS011;3564;53.326;10.356;2022-12-18T04:03:28;15.77;;;10.00;;
7045;SDS011;3564;53.326;10.356;2022-12-18T04:05:56;14.40;;;9.03;;
7045;SDS011;3564;53.326;10.356;2022-12-18T04:08:25;16.10;;;10.53;;
7045;SDS011;3564;53.326;10.356;2022-12-18T04:10:51;16.17;;;10.50;;
7045;SDS011;3564;53.326;10.356;2022-12-18T04:13:23;17.03;;;9.67;;
7045;SDS011;3564;53.326;10.356;2022-12-18T04:15:52;17.30;;;9.93;;
7045;SDS011;3564;53.326;10.356;2022-12-18T04:18:18;19.20;;;10.70;;
7045;SDS011;3564;53.326;10.356;2022-12-18T04:20:43;17.10;;;10.30;;
7045;SDS011;3564;53.326;10.356;2022-12-18T04:23:09;14.83;;;10.17;;
7045;SDS011;3564;53.326;10.356;2022-12-18T04:25:34;17.77;;;10.50;;
7045;SDS011;3564;53.326;10.356;2022-12-18T04:28:00;17.30;;;10.20;;
7045;SDS011;3564;53.326;10.356;2022-12-18T04:30:25;16.10;;;10.20;;
7045;SDS011;3564;53.326;10.356;2022-12-18T04:32:51;14.93;;;9.27;;
7045;SDS011;3564;53.326;10.356;2022-12-18T04:35:16;16.37;;;10.37;;
7045;SDS011;3564;53.326;10.356;2022-12-18T04:37:42;15.37;;;10.03;;
7045;SDS011;3564;53.326;10.356;2022-12-18T04:40:08;17.10;;;10.27;;
7045;SDS011;3564;53.326;10.356;2022-12-18T04:42:34;17.37;;;10.10;;
7045;SDS011;3564;53.326;10.356;2022-12-18T04:44:59;13.90;;;9.43;;
7045;SDS011;3564;53.326;10.356;2022-12-18T04:47:25;17.67;;;10.37;;
7045;SDS011;3564;53.326;10.356;2022-12-18T04:49:50;16.23;;;9.93;;
7045;SDS011;3564;53.326;10.356;2022-12-18T04:52:16;17.50;;;10.97;;
7045;SDS011;3564;53.326;10.356;2022-12-18T04:54:41;18.37;;;11.30;;
7045;SDS011;3564;53.326;10.356;2022-12-18T04:57:07;17.13;;;10.40;;
7045;SDS011;3564;53.326;10.356;2022-12-18T04:59:32;18.70;;;10.40;;
7045;SDS011;3564;53.326;10.356;2022-12-18T05:01:58;16.70;;;10.13;;
7045;SDS011;3564;53.326;10.356;2022-12-18T05:04:23;18.00;;;10.10;;
7045;SDS011;3564;53.326;10.356;2022-12-18T05:06:49;18.27;;;10.70;;
7045;SDS011;3564;53.326;10.356;2022-12-18T05:09:17;16.43;;;9.83;;
7045;SDS011;3564;53.326;10.356;2022-12-18T05:11:43;14.90;;;10.57;;
7045;SDS011;3564;53.326;10.356;2022-12-18T05:14:08;18.53;;;10.57;;
7045;SDS011;3564;53.326;10.356;2022-12-18T05:16:34;17.00;;;10.70;;
7045;SDS011;3564;53.326;10.356;2022-12-18T05:18:59;22.93;;;11.20;;
7045;SDS011;3564;53.326;10.356;2022-12-18T05:21:25;16.70;;;10.83;;
7045;SDS011;3564;53.326;10.356;2022-12-18T05:23:50;19.07;;;10.67;;
7045;SDS011;3564;53.326;10.356;2022-12-18T05:26:17;20.67;;;10.57;;
7045;SDS011;3564;53.326;10.356;2022-12-18T05:28:43;18.53;;;10.37;;
7045;SDS011;3564;53.326;10.356;2022-12-18T05:31:09;16.60;;;10.93;;
7045;SDS011;3564;53.326;10.356;2022-12-18T05:33:35;20.67;;;11.70;;
7045;SDS011;3564;53.326;10.356;2022-12-18T05:36:01;15.30;;;9.87;;
7045;SDS011;3564;53.326;10.356;2022-12-18T05:38:28;17.33;;;10.47;;
7045;SDS011;3564;53.326;10.356;2022-12-18T05:40:55;18.03;;;10.00;;
7045;SDS011;3564;53.326;10.356;2022-12-18T05:43:21;20.97;;;11.50;;
7045;SDS011;3564;53.326;10.356;2022-12-18T05:45:50;17.37;;;10.00;;
7045;SDS011;3564;53.326;10.356;2022-12-18T05:48:17;15.77;;;9.90;;
7045;SDS011;3564;53.326;10.356;2022-12-18T05:50:43;20.30;;;10.67;;
7045;SDS011;3564;53.326;10.356;2022-12-18T05:53:11;16.23;;;11.57;;
7045;SDS011;3564;53.326;10.356;2022-12-18T05:55:39;22.73;;;12.13;;
7045;SDS011;3564;53.326;10.356;2022-12-18T05:58:06;16.07;;;10.73;;
7045;SDS011;3564;53.326;10.356;2022-12-18T06:00:33;15.53;;;10.70;;
7045;SDS011;3564;53.326;10.356;2022-12-18T06:03:00;17.87;;;10.63;;
7045;SDS011;3564;53.326;10.356;2022-12-18T06:05:27;17.23;;;10.93;;
7045;SDS011;3564;53.326;10.356;2022-12-18T06:07:53;16.53;;;11.13;;
7045;SDS011;3564;53.326;10.356;2022-12-18T06:10:18;19.83;;;10.70;;
7045;SDS011;3564;53.326;10.356;2022-12-18T06:12:45;16.57;;;10.87;;
7045;SDS011;3564;53.326;10.356;2022-12-18T06:15:11;16.47;;;10.60;;
7045;SDS011;3564;53.326;10.356;2022-12-18T06:17:37;18.97;;;10.60;;
7045;SDS011;3564;53.326;10.356;2022-12-18T06:20:03;16.73;;;10.67;;
7045;SDS011;3564;53.326;10.356;2022-12-18T06:22:31;17.27;;;10.17;;
7045;SDS011;3564;53.326;10.356;2022-12-18T06:25:00;15.10;;;10.23;;
7045;SDS011;3564;53.326;10.356;2022-12-18T06:27:26;14.43;;;9.47;;
7045;SDS011;3564;53.326;10.356;2022-12-18T06:29:51;17.80;;;10.80;;
7045;SDS011;3564;53.326;10.356;2022-12-18T06:32:17;18.93;;;11.23;;
7045;SDS011;3564;53.326;10.356;2022-12-18T06:34:42;15.43;;;10.97;;
7045;SDS011;3564;53.326;10.356;2022-12-18T06:37:08;17.87;;;10.63;;
7045;SDS011;3564;53.326;10.356;2022-12-18T06:39:33;19.97;;;11.33;;
7045;SDS011;3564;53.326;10.356;2022-12-18T06:41:59;18.07;;;11.10;;
7045;SDS011;3564;53.326;10.356;2022-12-18T06:44:24;18.77;;;10.70;;
7045;SDS011;3564;53.326;10.356;2022-12-18T06:46:51;16.47;;;10.43;;
7045;SDS011;3564;53.326;10.356;2022-12-18T06:49:17;14.20;;;10.20;;
7045;SDS011;3564;53.326;10.356;2022-12-18T06:51:42;17.50;;;10.57;;
7045;SDS011;3564;53.326;10.356;2022-12-18T06:54:08;17.43;;;10.43;;
7045;SDS011;3564;53.326;10.356;2022-12-18T06:56:33;19.87;;;11.90;;
7045;SDS011;3564;53.326;10.356;2022-12-18T06:58:59;17.90;;;11.80;;
7045;SDS011;3564;53.326;10.356;2022-12-18T07:01:25;18.13;;;11.03;;
7045;SDS011;3564;53.326;10.356;2022-12-18T07:03:51;19.47;;;11.07;;
7045;SDS011;3564;53.326;10.356;2022-12-18T07:06:19;18.90;;;11.90;;
7045;SDS011;3564;53.326;10.356;2022-12-18T07:08:46;18.27;;;10.27;;
7045;SDS011;3564;53.326;10.356;2022-12-18T07:11:13;16.57;;;10.70;;
7045;SDS011;3564;53.326;10.356;2022-12-18T07:13:39;17.93;;;10.47;;
7045;SDS011;3564;53.326;10.356;2022-12-18T07:16:08;17.87;;;10.33;;
7045;SDS011;3564;53.326;10.356;2022-12-18T07:18:38;18.57;;;11.23;;
7045;SDS011;3564;53.326;10.356;2022-12-18T07:21:04;17.47;;;10.30;;
7045;SDS011;3564;53.326;10.356;2022-12-18T07:23:32;16.30;;;10.37;;
7045;SDS011;3564;53.326;10.356;2022-12-18T07:26:08;19.77;;;11.20;;
7045;SDS011;3564;53.326;10.356;2022-12-18T07:28:36;20.90;;;10.77;;
7045;SDS011;3564;53.326;10.356;2022-12-18T07:31:06;20.37;;;11.33;;
7045;SDS011;3564;53.326;10.356;2022-12-18T07:33:35;17.83;;;11.33;;
7045;SDS011;3564;53.326;10.356;2022-12-18T07:36:01;19.40;;;11.00;;
7045;SDS011;3564;53.326;10.356;2022-12-18T07:38:28;19.67;;;11.13;;
7045;SDS011;3564;53.326;10.356;2022-12-18T07:40:54;17.63;;;10.50;;
7045;SDS011;3564;53.326;10.356;2022-12-18T07:43:24;20.93;;;10.43;;
7045;SDS011;3564;53.326;10.356;2022-12-18T07:45:50;17.97;;;11.87;;
7045;SDS011;3564;53.326;10.356;2022-12-18T07:48:15;19.40;;;12.03;;
7045;SDS011;3564;53.326;10.356;2022-12-18T07:50:41;19.17;;;11.77;;
7045;SDS011;3564;53.326;10.356;2022-12-18T07:53:06;19.23;;;10.87;;
7045;SDS011;3564;53.326;10.356;2022-12-18T07:55:32;17.90;;;10.67;;
7045;SDS011;3564;53.326;10.356;2022-12-18T07:58:00;17.80;;;10.73;;
7045;SDS011;3564;53.326;10.356;2022-12-18T08:00:27;16.17;;;10.83;;
7045;SDS011;3564;53.326;10.356;2022-12-18T08:02:52;22.07;;;11.70;;
7045;SDS011;3564;53.326;10.356;2022-12-18T08:05:18;18.23;;;11.17;;
7045;SDS011;3564;53.326;10.356;2022-12-18T08:07:44;17.63;;;10.93;;
7045;SDS011;3564;53.326;10.356;2022-12-18T08:10:09;17.77;;;11.30;;
7045;SDS011;3564;53.326;10.356;2022-12-18T08:12:35;21.07;;;12.33;;
7045;SDS011;3564;53.326;10.356;2022-12-18T08:15:00;19.37;;;11.17;;
7045;SDS011;3564;53.326;10.356;2022-12-18T08:17:26;17.93;;;11.37;;
7045;SDS011;3564;53.326;10.356;2022-12-18T08:19:51;19.47;;;11.90;;
7045;SDS011;3564;53.326;10.356;2022-12-18T08:22:20;18.43;;;9.90;;
7045;SDS011;3564;53.326;10.356;2022-12-18T08:24:45;17.30;;;11.83;;
7045;SDS011;3564;53.326;10.356;2022-12-18T08:27:14;19.70;;;10.90;;
7045;SDS011;3564;53.326;10.356;2022-12-18T08:29:39;19.27;;;11.00;;
7045;SDS011;3564;53.326;10.356;2022-12-18T08:32:05;18.47;;;10.77;;
7045;SDS011;3564;53.326;10.356;2022-12-18T08:34:31;17.97;;;11.33;;
7045;SDS011;3564;53.326;10.356;2022-12-18T08:36:56;19.40;;;11.03;;
7045;SDS011;3564;53.326;10.356;2022-12-18T08:39:22;18.10;;;11.23;;
7045;SDS011;3564;53.326;10.356;2022-12-18T08:41:47;17.23;;;11.20;;
7045;SDS011;3564;53.326;10.356;2022-12-18T08:44:33;21.33;;;11.40;;
7045;SDS011;3564;53.326;10.356;2022-12-18T08:47:05;19.47;;;11.50;;
7045;SDS011;3564;53.326;10.356;2022-12-18T08:49:31;18.73;;;11.80;;
7045;SDS011;3564;53.326;10.356;2022-12-18T08:51:57;16.43;;;10.93;;
7045;SDS011;3564;53.326;10.356;2022-12-18T08:54:23;20.37;;;11.03;;
7045;SDS011;3564;53.326;10.356;2022-12-18T08:56:49;21.13;;;12.20;;
7045;SDS011;3564;53.326;10.356;2022-12-18T08:59:15;17.60;;;11.10;;
7045;SDS011;3564;53.326;10.356;2022-12-18T09:01:41;24.03;;;12.00;;
7045;SDS011;3564;53.326;10.356;2022-12-18T09:04:08;19.93;;;11.53;;
7045;SDS011;3564;53.326;10.356;2022-12-18T09:06:34;20.87;;;11.90;;
7045;SDS011;3564;53.326;10.356;2022-12-18T09:09:01;17.57;;;11.33;;
7045;SDS011;3564;53.326;10.356;2022-12-18T09:11:27;21.77;;;12.63;;
7045;SDS011;3564;53.326;10.356;2022-12-18T09:13:54;19.63;;;12.43;;
7045;SDS011;3564;53.326;10.356;2022-12-18T09:16:20;23.70;;;12.67;;
7045;SDS011;3564;53.326;10.356;2022-12-18T09:18:46;22.87;;;12.27;;
7045;SDS011;3564;53.326;10.356;2022-12-18T09:21:13;21.80;;;11.43;;
7045;SDS011;3564;53.326;10.356;2022-12-18T09:23:41;20.07;;;12.43;;
7045;SDS011;3564;53.326;10.356;2022-12-18T09:26:07;19.50;;;11.53;;
7045;SDS011;3564;53.326;10.356;2022-12-18T09:28:33;24.10;;;12.83;;
7045;SDS011;3564;53.326;10.356;2022-12-18T09:30:59;20.20;;;12.40;;
7045;SDS011;3564;53.326;10.356;2022-12-18T09:33:29;20.13;;;12.03;;
7045;SDS011;3564;53.326;10.356;2022-12-18T09:35:55;22.00;;;12.07;;
7045;SDS011;3564;53.326;10.356;2022-12-18T09:38:20;20.23;;;11.00;;
7045;SDS011;3564;53.326;10.356;2022-12-18T09:40:48;20.90;;;11.93;;
7045;SDS011;3564;53.326;10.356;2022-12-18T09:43:18;20.20;;;11.80;;
7045;SDS011;3564;53.326;10.356;2022-12-18T09:45:51;20.13;;;11.80;;
7045;SDS011;3564;53.326;10.356;2022-12-18T09:48:23;20.33;;;11.77;;
7045;SDS011;3564;53.326;10.356;2022-12-18T09:50:57;19.40;;;12.20;;
7045;SDS011;3564;53.326;10.356;2022-12-18T09:53:26;20.87;;;11.10;;
7045;SDS011;3564;53.326;10.356;2022-12-18T09:55:56;18.53;;;10.90;;
7045;SDS011;3564;53.326;10.356;2022-12-18T09:58:36;19.57;;;11.60;;
7045;SDS011;3564;53.326;10.356;2022-12-18T10:01:10;17.30;;;11.37;;
7045;SDS011;3564;53.326;10.356;2022-12-18T10:03:41;20.23;;;11.87;;
7045;SDS011;3564;53.326;10.356;2022-12-18T10:09:01;23.33;;;12.50;;
7045;SDS011;3564;53.326;10.356;2022-12-18T10:14:40;20.50;;;11.70;;
7045;SDS011;3564;53.326;10.356;2022-12-18T10:17:34;18.77;;;11.33;;
7045;SDS011;3564;53.326;10.356;2022-12-18T10:22:53;18.30;;;11.63;;
7045;SDS011;3564;53.326;10.356;2022-12-18T10:25:38;21.50;;;12.03;;
7045;SDS011;3564;53.326;10.356;2022-12-18T10:28:10;21.67;;;12.43;;
7045;SDS011;3564;53.326;10.356;2022-12-18T10:30:39;20.20;;;12.43;;
7045;SDS011;3564;53.326;10.356;2022-12-18T10:33:08;19.87;;;12.40;;
7045;SDS011;3564;53.326;10.356;2022-12-18T10:35:37;19.93;;;11.57;;
7045;SDS011;3564;53.326;10.356;2022-12-18T10:40:48;27.83;;;13.53;;
7045;SDS011;3564;53.326;10.356;2022-12-18T10:43:20;25.77;;;12.80;;
7045;SDS011;3564;53.326;10.356;2022-12-18T10:45:58;23.80;;;13.43;;
7045;SDS011;3564;53.326;10.356;2022-12-18T10:48:34;21.70;;;12.37;;
7045;SDS011;3564;53.326;10.356;2022-12-18T10:51:05;20.13;;;11.97;;
7045;SDS011;3564;53.326;10.356;2022-12-18T10:53:34;23.10;;;11.73;;
7045;SDS011;3564;53.326;10.356;2022-12-18T10:56:02;22.03;;;11.53;;
7045;SDS011;3564;53.326;10.356;2022-12-18T10:58:32;50.77;;;28.23;;
7045;SDS011;3564;53.326;10.356;2022-12-18T11:01:15;30.10;;;15.47;;
7045;SDS011;3564;53.326;10.356;2022-12-18T11:03:43;21.33;;;12.40;;
7045;SDS011;3564;53.326;10.356;2022-12-18T11:06:14;19.93;;;11.73;;
7045;SDS011;3564;53.326;10.356;2022-12-18T11:08:42;17.53;;;11.10;;
7045;SDS011;3564;53.326;10.356;2022-12-18T11:11:42;18.90;;;11.33;;
7045;SDS011;3564;53.326;10.356;2022-12-18T11:14:03;19.07;;;11.10;;
7045;SDS011;3564;53.326;10.356;2022-12-18T11:16:33;23.30;;;13.10;;
7045;SDS011;3564;53.326;10.356;2022-12-18T11:19:21;21.40;;;11.87;;
7045;SDS011;3564;53.326;10.356;2022-12-18T11:21:49;18.00;;;11.67;;
7045;SDS011;3564;53.326;10.356;2022-12-18T11:24:33;19.53;;;11.63;;
7045;SDS011;3564;53.326;10.356;2022-12-18T11:27:05;21.67;;;11.50;;
7045;SDS011;3564;53.326;10.356;2022-12-18T11:29:40;20.87;;;12.10;;
7045;SDS011;3564;53.326;10.356;2022-12-18T11:35:14;19.90;;;11.23;;
7045;SDS011;3564;53.326;10.356;2022-12-18T11:37:59;19.13;;;11.77;;
7045;SDS011;3564;53.326;10.356;2022-12-18T11:40:33;21.43;;;12.33;;
7045;SDS011;3564;53.326;10.356;2022-12-18T11:43:06;21.10;;;12.37;;
7045;SDS011;3564;53.326;10.356;2022-12-18T11:45:52;23.53;;;12.63;;
7045;SDS011;3564;53.326;10.356;2022-12-18T11:48:45;22.23;;;11.57;;
7045;SDS011;3564;53.326;10.356;2022-12-18T11:51:13;21.87;;;12.73;;
7045;SDS011;3564;53.326;10.356;2022-12-18T11:53:45;22.40;;;11.60;;
7045;SDS011;3564;53.326;10.356;2022-12-18T11:56:17;20.90;;;11.87;;
7045;SDS011;3564;53.326;10.356;2022-12-18T11:59:15;20.60;;;10.90;;
7045;SDS011;3564;53.326;10.356;2022-12-18T12:01:51;20.27;;;12.00;;
7045;SDS011;3564;53.326;10.356;2022-12-18T12:13:05;19.77;;;12.03;;
7045;SDS011;3564;53.326;10.356;2022-12-18T12:21:24;20.27;;;12.53;;
7045;SDS011;3564;53.326;10.356;2022-12-18T12:39:43;18.87;;;10.53;;
7045;SDS011;3564;53.326;10.356;2022-12-18T12:42:13;21.77;;;11.50;;
7045;SDS011;3564;53.326;10.356;2022-12-18T12:45:05;19.33;;;10.67;;
7045;SDS011;3564;53.326;10.356;2022-12-18T12:47:36;20.40;;;10.87;;
7045;SDS011;3564;53.326;10.356;2022-12-18T12:50:06;20.27;;;11.23;;
7045;SDS011;3564;53.326;10.356;2022-12-18T12:52:47;20.27;;;10.93;;
7045;SDS011;3564;53.326;10.356;2022-12-18T12:55:23;18.63;;;10.27;;
7045;SDS011;3564;53.326;10.356;2022-12-18T12:57:55;18.20;;;10.77;;
7045;SDS011;3564;53.326;10.356;2022-12-18T13:00:22;20.50;;;11.57;;
7045;SDS011;3564;53.326;10.356;2022-12-18T13:05:38;22.23;;;12.17;;
7045;SDS011;3564;53.326;10.356;2022-12-18T13:10:57;24.63;;;12.73;;
7045;SDS011;3564;53.326;10.356;2022-12-18T13:13:53;19.67;;;11.13;;
7045;SDS011;3564;53.326;10.356;2022-12-18T13:16:23;21.57;;;12.03;;
7045;SDS011;3564;53.326;10.356;2022-12-18T13:18:50;21.33;;;11.63;;
7045;SDS011;3564;53.326;10.356;2022-12-18T13:21:29;20.73;;;12.33;;
7045;SDS011;3564;53.326;10.356;2022-12-18T13:23:57;23.80;;;12.73;;
7045;SDS011;3564;53.326;10.356;2022-12-18T13:26:49;26.10;;;13.43;;
7045;SDS011;3564;53.326;10.356;2022-12-18T13:29:40;24.03;;;13.47;;
7045;SDS011;3564;53.326;10.356;2022-12-18T13:32:19;25.83;;;13.90;;
7045;SDS011;3564;53.326;10.356;2022-12-18T13:34:46;26.17;;;15.07;;
7045;SDS011;3564;53.326;10.356;2022-12-18T13:37:41;24.70;;;14.33;;
7045;SDS011;3564;53.326;10.356;2022-12-18T13:40:55;34.40;;;19.50;;
7045;SDS011;3564;53.326;10.356;2022-12-18T13:43:15;25.43;;;14.30;;
7045;SDS011;3564;53.326;10.356;2022-12-18T13:45:45;22.30;;;12.97;;
7045;SDS011;3564;53.326;10.356;2022-12-18T13:48:27;27.30;;;14.33;;
7045;SDS011;3564;53.326;10.356;2022-12-18T13:51:12;29.67;;;14.60;;
7045;SDS011;3564;53.326;10.356;2022-12-18T13:53:44;29.07;;;15.53;;
7045;SDS011;3564;53.326;10.356;2022-12-18T13:56:21;25.10;;;13.67;;
7045;SDS011;3564;53.326;10.356;2022-12-18T14:01:34;22.87;;;12.67;;
7045;SDS011;3564;53.326;10.356;2022-12-18T14:04:10;26.00;;;13.43;;
7045;SDS011;3564;53.326;10.356;2022-12-18T14:06:37;25.90;;;14.00;;
7045;SDS011;3564;53.326;10.356;2022-12-18T14:09:04;25.43;;;13.60;;
7045;SDS011;3564;53.326;10.356;2022-12-18T14:11:30;25.97;;;13.63;;
7045;SDS011;3564;53.326;10.356;2022-12-18T14:13:57;23.27;;;13.90;;
7045;SDS011;3564;53.326;10.356;2022-12-18T14:16:22;26.70;;;14.27;;
7045;SDS011;3564;53.326;10.356;2022-12-18T14:18:52;22.50;;;13.27;;
7045;SDS011;3564;53.326;10.356;2022-12-18T14:21:28;24.33;;;13.23;;
7045;SDS011;3564;53.326;10.356;2022-12-18T14:24:14;25.50;;;13.57;;
7045;SDS011;3564;53.326;10.356;2022-12-18T14:26:41;30.43;;;15.40;;
7045;SDS011;3564;53.326;10.356;2022-12-18T14:29:19;26.27;;;13.00;;
7045;SDS011;3564;53.326;10.356;2022-12-18T14:34:39;23.23;;;12.70;;
7045;SDS011;3564;53.326;10.356;2022-12-18T14:37:05;29.67;;;13.57;;
7045;SDS011;3564;53.326;10.356;2022-12-18T14:39:34;23.23;;;13.17;;
7045;SDS011;3564;53.326;10.356;2022-12-18T14:42:00;26.27;;;13.30;;
7045;SDS011;3564;53.326;10.356;2022-12-18T14:44:25;23.60;;;13.73;;
7045;SDS011;3564;53.326;10.356;2022-12-18T14:46:53;27.87;;;13.70;;
7045;SDS011;3564;53.326;10.356;2022-12-18T14:51:53;23.53;;;12.13;;
7045;SDS011;3564;53.326;10.356;2022-12-18T14:54:22;21.97;;;12.00;;
7045;SDS011;3564;53.326;10.356;2022-12-18T14:56:50;23.57;;;13.17;;
7045;SDS011;3564;53.326;10.356;2022-12-18T14:59:22;25.47;;;13.77;;
7045;SDS011;3564;53.326;10.356;2022-12-18T15:01:55;25.27;;;12.83;;
7045;SDS011;3564;53.326;10.356;2022-12-18T15:04:46;27.47;;;13.13;;
7045;SDS011;3564;53.326;10.356;2022-12-18T15:07:16;23.50;;;12.83;;
7045;SDS011;3564;53.326;10.356;2022-12-18T15:12:49;24.53;;;12.33;;
7045;SDS011;3564;53.326;10.356;2022-12-18T15:20:32;22.87;;;11.97;;
7045;SDS011;3564;53.326;10.356;2022-12-18T15:23:05;22.70;;;12.20;;
7045;SDS011;3564;53.326;10.356;2022-12-18T15:25:38;22.20;;;12.40;;
7045;SDS011;3564;53.326;10.356;2022-12-18T15:28:04;21.30;;;12.80;;
7045;SDS011;3564;53.326;10.356;2022-12-18T15:30:58;25.10;;;13.33;;
7045;SDS011;3564;53.326;10.356;2022-12-18T15:33:25;23.10;;;12.77;;
7045;SDS011;3564;53.326;10.356;2022-12-18T15:36:05;23.43;;;13.53;;
7045;SDS011;3564;53.326;10.356;2022-12-18T15:38:34;24.07;;;12.67;;
7045;SDS011;3564;53.326;10.356;2022-12-18T15:41:00;22.37;;;12.57;;
7045;SDS011;3564;53.326;10.356;2022-12-18T15:43:28;21.83;;;12.10;;
7045;SDS011;3564;53.326;10.356;2022-12-18T15:46:06;27.20;;;13.90;;
7045;SDS011;3564;53.326;10.356;2022-12-18T15:48:39;21.93;;;11.93;;
7045;SDS011;3564;53.326;10.356;2022-12-18T15:53:55;24.87;;;12.80;;
7045;SDS011;3564;53.326;10.356;2022-12-18T15:56:23;23.97;;;11.77;;
7045;SDS011;3564;53.326;10.356;2022-12-18T15:59:12;22.77;;;11.43;;
7045;SDS011;3564;53.326;10.356;2022-12-18T16:01:44;24.00;;;11.30;;
7045;SDS011;3564;53.326;10.356;2022-12-18T16:04:11;22.57;;;12.50;;
7045;SDS011;3564;53.326;10.356;2022-12-18T16:06:39;22.50;;;12.50;;
7045;SDS011;3564;53.326;10.356;2022-12-18T16:09:05;20.93;;;11.67;;
7045;SDS011;3564;53.326;10.356;2022-12-18T16:11:32;19.27;;;11.93;;
7045;SDS011;3564;53.326;10.356;2022-12-18T16:14:19;21.40;;;11.70;;
7045;SDS011;3564;53.326;10.356;2022-12-18T16:16:48;20.33;;;11.97;;
7045;SDS011;3564;53.326;10.356;2022-12-18T16:19:15;17.77;;;11.17;;
7045;SDS011;3564;53.326;10.356;2022-12-18T16:21:41;20.23;;;11.67;;
7045;SDS011;3564;53.326;10.356;2022-12-18T16:24:17;22.47;;;12.80;;
7045;SDS011;3564;53.326;10.356;2022-12-18T16:26:46;23.67;;;12.17;;
7045;SDS011;3564;53.326;10.356;2022-12-18T16:29:13;21.43;;;12.20;;
7045;SDS011;3564;53.326;10.356;2022-12-18T16:31:39;18.93;;;10.90;;
7045;SDS011;3564;53.326;10.356;2022-12-18T16:36:40;17.20;;;11.47;;